createdAt,value
2023-01-07T00:00:00.280Z,10.6
2023-01-07T00:05:00.157Z,10.6
2023-01-07T00:10:00.247Z,10.6
2023-01-07T00:15:00.246Z,10.6
2023-01-07T00:20:00.307Z,10.6
2023-01-07T00:25:00.231Z,10.6
2023-01-07T00:30:00.191Z,10.6
2023-01-07T00:35:00.272Z,10.6
2023-01-07T00:40:00.207Z,10.6
2023-01-07T00:45:00.240Z,10.6
2023-01-07T00:50:00.237Z,10.7
2023-01-07T00:55:00.240Z,10.6
2023-01-07T01:00:00.282Z,10.7
2023-01-07T01:05:00.247Z,10.7
2023-01-07T01:10:00.278Z,10.7
2023-01-07T01:15:00.233Z,10.7
2023-01-07T01:20:00.203Z,10.7
2023-01-07T01:25:00.253Z,10.7
2023-01-07T01:30:00.238Z,10.7
2023-01-07T01:35:00.240Z,10.7
2023-01-07T01:40:00.300Z,10.7
2023-01-07T01:45:00.255Z,10.7
2023-01-07T01:50:00.233Z,10.7
2023-01-07T01:55:00.154Z,10.7
2023-01-07T02:00:00.269Z,10.7
2023-01-07T02:05:00.236Z,10.7
2023-01-07T02:10:00.234Z,10.6
2023-01-07T02:15:00.218Z,10.7
2023-01-07T02:20:00.407Z,10.6
2023-01-07T02:25:00.264Z,10.6
2023-01-07T02:30:00.312Z,10.6
2023-01-07T02:35:00.155Z,10.6
2023-01-07T02:40:00.231Z,10.6
2023-01-07T02:45:00.230Z,10.6
2023-01-07T02:50:00.239Z,10.6
2023-01-07T02:55:00.479Z,10.6
2023-01-07T03:00:00.188Z,10.6
2023-01-07T03:05:00.244Z,10.6
2023-01-07T03:10:00.212Z,10.6
2023-01-07T03:15:00.238Z,10.6
2023-01-07T03:20:00.247Z,10.6
2023-01-07T03:25:00.211Z,10.6
2023-01-07T03:30:00.240Z,10.5
2023-01-07T03:35:00.231Z,10.5
2023-01-07T03:40:00.163Z,10.5
2023-01-07T03:45:00.198Z,10.5
2023-01-07T03:50:00.241Z,10.4
2023-01-07T03:55:00.299Z,10.4
2023-01-07T04:00:00.225Z,10.4
2023-01-07T04:05:00.170Z,10.4
2023-01-07T04:10:00.252Z,10.4
2023-01-07T04:15:00.278Z,10.4
2023-01-07T04:20:00.279Z,10.3
2023-01-07T04:25:00.230Z,10.3
2023-01-07T04:30:00.226Z,10.3
2023-01-07T04:35:00.232Z,10.3
2023-01-07T04:40:00.243Z,10.2
2023-01-07T04:45:00.221Z,10.3
2023-01-07T04:50:00.274Z,10.2
2023-01-07T04:55:00.284Z,10.2
2023-01-07T05:00:00.292Z,10.2
2023-01-07T05:05:00.228Z,10.2
2023-01-07T05:10:00.269Z,10.2
2023-01-07T05:15:00.235Z,10.2
2023-01-07T05:20:00.326Z,10.2
2023-01-07T05:25:00.279Z,10.2
2023-01-07T05:30:00.261Z,10.2
2023-01-07T05:35:00.265Z,10.2
2023-01-07T05:40:00.289Z,10.2
2023-01-07T05:45:00.227Z,10.2
2023-01-07T05:50:00.278Z,10.2
2023-01-07T05:55:00.230Z,10.2
2023-01-07T06:00:00.268Z,10.2
2023-01-07T06:05:00.346Z,10.1
2023-01-07T06:10:02.618Z,10.1
2023-01-07T06:15:00.297Z,10.1
2023-01-07T06:20:00.376Z,10.1
2023-01-07T06:25:00.283Z,10
2023-01-07T06:30:00.257Z,10
2023-01-07T06:35:00.279Z,10
2023-01-07T06:40:00.249Z,10
2023-01-07T06:45:00.258Z,10
2023-01-07T06:50:00.209Z,10
2023-01-07T06:55:00.309Z,9.9
2023-01-07T07:00:00.292Z,9.9
2023-01-07T07:05:00.252Z,9.8
2023-01-07T07:10:00.247Z,9.8
2023-01-07T07:15:00.240Z,9.8
2023-01-07T07:20:00.267Z,9.8
2023-01-07T07:25:00.303Z,9.8
2023-01-07T07:30:00.245Z,9.8
2023-01-07T07:35:00.263Z,9.8
2023-01-07T07:40:00.291Z,9.8
2023-01-07T07:45:00.270Z,9.8
2023-01-07T07:50:00.254Z,9.9
2023-01-07T07:55:20.175Z,9.9
2023-01-07T08:00:00.306Z,9.9
2023-01-07T08:05:00.229Z,10
2023-01-07T08:10:00.269Z,10
2023-01-07T08:15:00.260Z,10
2023-01-07T08:20:00.339Z,10.1
2023-01-07T08:25:00.186Z,10.1
2023-01-07T08:30:00.277Z,10.1
2023-01-07T08:35:00.301Z,10.2
2023-01-07T08:40:00.242Z,10.2
2023-01-07T08:45:00.308Z,10.2
2023-01-07T08:50:00.365Z,10.2
2023-01-07T08:55:00.285Z,10.2
2023-01-07T09:00:00.273Z,10.3
2023-01-07T09:05:00.282Z,10.4
2023-01-07T09:10:00.225Z,10.4
2023-01-07T09:15:00.267Z,10.4
2023-01-07T09:20:00.263Z,10.4
2023-01-07T09:25:00.251Z,10.4
2023-01-07T09:30:00.305Z,10.4
2023-01-07T09:35:00.314Z,10.5
2023-01-07T09:40:00.322Z,10.5
2023-01-07T09:45:00.297Z,10.5
2023-01-07T09:50:00.288Z,10.5
2023-01-07T09:55:00.253Z,10.5
2023-01-07T10:00:00.295Z,10.5
2023-01-07T10:05:00.249Z,10.6
2023-01-07T10:10:00.294Z,10.6
2023-01-07T10:15:00.269Z,10.6
2023-01-07T10:20:00.686Z,10.6
2023-01-07T10:25:00.293Z,10.6
2023-01-07T10:30:00.301Z,10.6
2023-01-07T10:35:00.298Z,10.6
2023-01-07T10:40:00.294Z,10.6
2023-01-07T10:45:00.351Z,10.6
2023-01-07T10:50:00.254Z,10.6
2023-01-07T10:55:00.292Z,10.6
2023-01-07T11:00:00.240Z,10.7
2023-01-07T11:05:00.225Z,10.7
2023-01-07T11:10:00.223Z,10.8
2023-01-07T11:15:00.266Z,10.8
2023-01-07T11:20:00.216Z,10.9
2023-01-07T11:25:00.233Z,11
2023-01-07T11:30:00.313Z,11
2023-01-07T11:35:00.171Z,11
2023-01-07T11:40:00.258Z,11
2023-01-07T11:45:00.247Z,11.1
2023-01-07T11:50:00.175Z,11.1
2023-01-07T11:55:00.270Z,11.2
2023-01-07T12:00:00.296Z,11.2
2023-01-07T12:05:00.252Z,11.2
2023-01-07T12:10:00.245Z,11.3
2023-01-07T12:15:00.271Z,11.3
2023-01-07T12:20:00.304Z,11.4
2023-01-07T12:25:00.267Z,11.4
2023-01-07T12:30:00.232Z,11.4
2023-01-07T12:35:15.180Z,11.4
2023-01-07T12:40:00.287Z,11.4
2023-01-07T12:45:00.210Z,11.4
2023-01-07T12:50:00.291Z,11.4
2023-01-07T12:55:00.217Z,11.5
2023-01-07T13:00:00.425Z,11.5
2023-01-07T13:05:00.385Z,11.5
2023-01-07T13:10:00.242Z,11.6
2023-01-07T13:15:00.272Z,11.6
2023-01-07T13:20:00.285Z,11.6
2023-01-07T13:25:00.277Z,11.5
2023-01-07T13:30:00.255Z,11.5
2023-01-07T13:35:00.271Z,11.5
2023-01-07T13:40:00.280Z,11.5
2023-01-07T13:45:00.227Z,11.5
2023-01-07T13:50:00.266Z,11.4
2023-01-07T13:55:00.244Z,11.4
2023-01-07T14:00:00.284Z,11.4
2023-01-07T14:05:00.276Z,11.4
2023-01-07T14:10:00.161Z,11.4
2023-01-07T14:15:00.271Z,11.4
2023-01-07T14:20:00.254Z,11.4
2023-01-07T14:25:00.254Z,11.3
2023-01-07T14:30:15.442Z,11.3
2023-01-07T14:35:00.249Z,11.3
2023-01-07T14:40:00.235Z,11.2
2023-01-07T14:45:00.248Z,11.2
2023-01-07T14:50:00.270Z,11.2
2023-01-07T14:55:00.240Z,11.2
2023-01-07T15:00:00.302Z,11.2
2023-01-07T15:05:00.243Z,11.1
2023-01-07T15:10:00.320Z,11.1
2023-01-07T15:15:00.283Z,11
2023-01-07T15:20:00.496Z,11
2023-01-07T15:25:00.232Z,11
2023-01-07T15:30:00.230Z,10.9
2023-01-07T15:35:00.257Z,10.8
2023-01-07T15:40:00.273Z,10.8
2023-01-07T15:45:00.284Z,10.8
2023-01-07T15:50:00.240Z,10.7
2023-01-07T15:55:00.269Z,10.6
2023-01-07T16:00:00.244Z,10.6
2023-01-07T16:05:00.334Z,10.6
2023-01-07T16:10:00.284Z,10.5
2023-01-07T16:15:00.316Z,10.4
2023-01-07T16:20:00.271Z,10.4
2023-01-07T16:25:00.452Z,10.4
2023-01-07T16:30:00.280Z,10.3
2023-01-07T16:35:00.593Z,10.3
2023-01-07T16:40:00.394Z,10.3
2023-01-07T16:45:00.294Z,10.2
2023-01-07T16:50:00.294Z,10.2
2023-01-07T16:55:00.288Z,10.2
2023-01-07T17:00:00.313Z,10.1
2023-01-07T17:05:00.255Z,10.1
2023-01-07T17:10:00.465Z,10.1
2023-01-07T17:15:00.283Z,10
2023-01-07T17:20:00.332Z,10
2023-01-07T17:25:00.199Z,10
2023-01-07T17:30:00.246Z,10
2023-01-07T17:35:00.301Z,9.9
2023-01-07T17:40:00.276Z,9.9
2023-01-07T17:45:00.225Z,9.9
2023-01-07T17:50:00.260Z,9.9
2023-01-07T17:55:00.227Z,9.8
2023-01-07T18:00:00.259Z,9.8
2023-01-07T18:05:00.230Z,9.8
2023-01-07T18:10:00.220Z,9.8
2023-01-07T18:15:00.222Z,9.8
2023-01-07T18:20:00.294Z,9.8
2023-01-07T18:25:00.341Z,9.8
2023-01-07T18:30:00.266Z,9.8
2023-01-07T18:35:00.262Z,9.8
2023-01-07T18:40:00.295Z,9.8
2023-01-07T18:45:00.224Z,9.8
2023-01-07T18:50:00.254Z,9.9
2023-01-07T18:55:00.250Z,9.9
2023-01-07T19:00:00.249Z,9.9
2023-01-07T19:05:00.191Z,10
2023-01-07T19:10:00.284Z,10
2023-01-07T19:15:00.299Z,10
2023-01-07T19:20:00.237Z,10.1
2023-01-07T19:25:00.263Z,10.1
2023-01-07T19:30:00.262Z,10.2
2023-01-07T19:35:00.205Z,10.2
2023-01-07T19:40:00.273Z,10.2
2023-01-07T19:45:00.243Z,10.2
2023-01-07T19:50:00.234Z,10.2
2023-01-07T19:55:00.299Z,10.2
2023-01-07T20:00:00.226Z,10.2
2023-01-07T20:05:00.208Z,10.2
2023-01-07T20:10:00.225Z,10.2
2023-01-07T20:15:00.251Z,10.2
2023-01-07T20:20:00.238Z,10.2
2023-01-07T20:25:00.251Z,10.2
2023-01-07T20:30:00.314Z,10.2
2023-01-07T20:35:00.236Z,10.2
2023-01-07T20:40:00.313Z,10.3
2023-01-07T20:45:00.279Z,10.3
2023-01-07T20:50:00.280Z,10.3
2023-01-07T20:55:00.275Z,10.4
2023-01-07T21:00:00.280Z,10.4
2023-01-07T21:05:00.257Z,10.5
2023-01-07T21:10:00.260Z,10.5
2023-01-07T21:15:00.239Z,10.6
2023-01-07T21:20:00.237Z,10.6
2023-01-07T21:25:00.215Z,10.6
2023-01-07T21:30:00.264Z,10.6
2023-01-07T21:35:00.254Z,10.6
2023-01-07T21:40:00.231Z,10.5
2023-01-07T21:45:00.215Z,10.4
2023-01-07T21:50:00.196Z,10.4
2023-01-07T21:55:00.226Z,10.4
2023-01-07T22:00:00.236Z,10.4
2023-01-07T22:05:00.292Z,10.3
2023-01-07T22:10:00.273Z,10.3
2023-01-07T22:15:00.235Z,10.3
2023-01-07T22:20:00.394Z,10.3
2023-01-07T22:25:00.257Z,10.3
2023-01-07T22:30:00.220Z,10.3
2023-01-07T22:35:00.235Z,10.3
2023-01-07T22:40:00.243Z,10.3
2023-01-07T22:45:00.252Z,10.3
2023-01-07T22:50:00.280Z,10.3
2023-01-07T22:55:00.220Z,10.2
2023-01-07T23:00:00.296Z,10.2
2023-01-07T23:05:00.217Z,10.2
2023-01-07T23:10:00.251Z,10.2
2023-01-07T23:15:00.308Z,10.2
2023-01-07T23:20:00.256Z,10.2
2023-01-07T23:25:00.269Z,10.2
2023-01-07T23:30:00.181Z,10.2
2023-01-07T23:35:00.219Z,10.3
2023-01-07T23:40:00.254Z,10.3
2023-01-07T23:45:00.307Z,10.3
2023-01-07T23:50:00.394Z,10.3
2023-01-07T23:55:00.195Z,10.3
